Time;durP1;ratioP1;P1;durP2;ratioP2;P2;SDS_P1;SDS_P2;PMS_P1;PMS_P2;Temp;Humidity;BMP_temperature;BMP_pressure;BME280_temperature;BME280_humidity;BME280_pressure;Samples;Min_cycle;Max_cycle;Signal;HPM_P1;HPM_P2
2022/01/25 00:10:38;;;;;;;57.08;36.17;;;4.40;99.90;;;;;;5028056;28;20056;-72
2022/01/25 00:26:30;;;;;;;57.05;34.97;;;4.40;99.90;;;;;;5014343;28;20057;-72
2022/01/25 00:29:15;;;;;;;54.53;35.53;;;4.40;99.90;;;;;;5029300;28;20056;-72
2022/01/25 00:31:43;;;;;;;54.67;35.17;;;4.40;99.90;;;;;;5015753;28;20080;-72
2022/01/25 00:34:09;;;;;;;53.97;35.65;;;4.40;99.90;;;;;;5010234;28;20481;-72
2022/01/25 00:36:35;;;;;;;59.50;36.55;;;4.40;99.90;;;;;;5013083;28;20052;-72
2022/01/25 00:39:03;;;;;;;54.35;35.67;;;4.40;99.90;;;;;;5035269;28;20072;-72
2022/01/25 00:41:29;;;;;;;56.13;36.72;;;4.40;99.90;;;;;;5015778;28;20038;-72
2022/01/25 00:43:57;;;;;;;54.88;35.22;;;4.40;99.90;;;;;;5015613;28;20390;-72
2022/01/25 00:46:23;;;;;;;55.10;35.83;;;4.40;99.90;;;;;;5032309;28;20033;-72
2022/01/25 00:48:53;;;;;;;56.53;35.72;;;4.40;99.90;;;;;;5033441;28;20463;-72
2022/01/25 00:54:13;;;;;;;55.53;35.33;;;4.40;99.90;;;;;;5011137;28;20056;-73
2022/01/25 00:56:47;;;;;;;54.25;36.22;;;4.40;99.90;;;;;;5008522;28;20085;-72
2022/01/25 00:59:18;;;;;;;61.17;36.80;;;4.40;99.90;;;;;;5012538;28;20054;-72
2022/01/25 01:01:45;;;;;;;54.17;35.58;;;4.40;99.90;;;;;;5012111;28;20054;-72
2022/01/25 01:04:11;;;;;;;53.97;36.13;;;4.40;99.90;;;;;;5013092;28;20505;-72
2022/01/25 01:06:38;;;;;;;56.08;35.85;;;4.40;99.90;;;;;;5015001;28;20037;-72
2022/01/25 01:09:05;;;;;;;54.13;34.45;;;4.40;99.90;;;;;;5029887;28;20150;-72
2022/01/25 01:11:38;;;;;;;52.55;34.33;;;4.40;99.90;;;;;;5028674;28;20049;-72
2022/01/25 01:14:16;;;;;;;53.97;34.80;;;4.40;99.90;;;;;;5012323;28;20053;-72
2022/01/25 01:17:12;;;;;;;56.53;36.13;;;4.40;99.90;;;;;;5012139;28;20041;-72
2022/01/25 01:43:55;;;;;;;59.15;37.50;;;4.40;99.90;;;;;;5050556;28;20044;-72
2022/01/25 01:46:33;;;;;;;57.03;38.20;;;4.40;99.90;;;;;;5076035;28;20064;-72
2022/01/25 01:49:01;;;;;;;57.72;38.83;;;4.40;99.90;;;;;;5051105;28;20041;-72
2022/01/25 01:51:34;;;;;;;58.38;37.75;;;4.40;99.90;;;;;;5062407;28;20436;-72
2022/01/25 01:54:13;;;;;;;63.13;39.78;;;4.40;99.90;;;;;;5055565;28;20090;-72
2022/01/25 01:56:40;;;;;;;61.90;38.40;;;4.40;99.90;;;;;;5059721;28;20044;-72
2022/01/25 01:59:12;;;;;;;61.33;40.42;;;4.40;99.90;;;;;;5054830;28;20046;-72
2022/01/25 02:01:39;;;;;;;58.33;39.17;;;4.40;99.90;;;;;;5052587;28;20037;-72
2022/01/25 02:04:07;;;;;;;60.67;39.25;;;4.40;99.90;;;;;;5041979;28;20072;-72
2022/01/25 02:06:33;;;;;;;59.80;38.85;;;4.40;99.90;;;;;;5073862;28;20036;-72
2022/01/25 02:08:59;;;;;;;61.08;39.50;;;4.50;99.90;;;;;;5058553;28;20041;-72
2022/01/25 02:11:25;;;;;;;57.40;38.30;;;4.50;99.90;;;;;;5079604;28;20087;-72
2022/01/25 02:13:51;;;;;;;58.63;39.33;;;4.40;99.90;;;;;;5072556;28;20048;-72
2022/01/25 02:16:39;;;;;;;65.38;41.17;;;4.40;99.90;;;;;;5074658;28;20428;-72
2022/01/25 02:24:39;;;;;;;62.60;41.58;;;4.40;99.90;;;;;;5059740;28;20047;-72
2022/01/25 02:27:05;;;;;;;64.90;40.78;;;4.40;99.90;;;;;;5062661;28;20032;-72
2022/01/25 02:29:31;;;;;;;65.93;41.65;;;4.40;99.90;;;;;;5081322;28;20135;-72
2022/01/25 02:31:57;;;;;;;63.85;41.97;;;4.40;99.90;;;;;;5054068;28;20071;-72
2022/01/25 02:34:24;;;;;;;63.60;39.88;;;4.40;99.90;;;;;;5055856;28;20033;-72
2022/01/25 02:37:01;;;;;;;59.90;40.97;;;4.50;99.90;;;;;;5048314;28;20056;-72
2022/01/25 02:39:28;;;;;;;62.70;40.00;;;4.40;99.90;;;;;;5056610;28;20044;-72
2022/01/25 02:41:54;;;;;;;61.17;40.65;;;4.40;99.90;;;;;;5061058;28;20123;-72
2022/01/25 02:44:26;;;;;;;59.67;38.70;;;4.40;99.90;;;;;;5060695;28;20036;-72
2022/01/25 02:49:19;;;;;;;62.67;40.50;;;4.40;99.90;;;;;;5056423;28;20044;-72
2022/01/25 02:51:48;;;;;;;63.40;40.42;;;4.40;99.90;;;;;;5076532;28;20121;-72
2022/01/25 02:54:16;;;;;;;59.40;39.45;;;4.40;99.90;;;;;;5055300;28;20047;-72
2022/01/25 02:56:44;;;;;;;62.47;40.22;;;4.40;99.90;;;;;;5052146;28;20115;-72
2022/01/25 02:59:12;;;;;;;61.70;39.70;;;4.40;99.90;;;;;;5053249;28;20054;-72
2022/01/25 03:01:38;;;;;;;60.15;39.83;;;4.40;99.90;;;;;;5071141;28;20632;-72
2022/01/25 03:04:05;;;;;;;59.17;38.25;;;4.40;99.90;;;;;;5042734;28;20032;-72
2022/01/25 03:06:31;;;;;;;65.13;41.75;;;4.40;99.90;;;;;;5077586;28;20044;-72
2022/01/25 03:08:57;;;;;;;61.13;39.95;;;4.40;99.90;;;;;;5056917;28;20147;-72
2022/01/25 03:11:24;;;;;;;64.18;40.38;;;4.40;99.90;;;;;;5049704;28;20123;-72
2022/01/25 03:13:54;;;;;;;61.92;39.80;;;4.40;99.90;;;;;;5067084;28;20051;-72
2022/01/25 03:16:41;;;;;;;63.80;40.22;;;4.30;99.90;;;;;;5053695;28;20111;-72
2022/01/25 03:22:12;;;;;;;59.38;38.22;;;4.30;99.90;;;;;;5070323;28;20046;-72
2022/01/25 03:24:38;;;;;;;62.47;39.65;;;4.30;99.90;;;;;;5052842;28;20044;-72
2022/01/25 03:27:04;;;;;;;61.70;38.80;;;4.30;99.90;;;;;;5057573;28;20043;-72
2022/01/25 03:29:29;;;;;;;63.40;41.40;;;4.40;99.90;;;;;;5047179;28;20127;-72
2022/01/25 03:31:55;;;;;;;60.50;38.58;;;4.30;99.90;;;;;;5069913;28;20102;-72
2022/01/25 03:34:20;;;;;;;59.53;38.13;;;4.30;99.90;;;;;;5066553;28;20050;-72
2022/01/25 03:36:46;;;;;;;64.65;40.05;;;4.30;99.90;;;;;;5076136;28;20063;-72
2022/01/25 03:39:12;;;;;;;62.53;38.08;;;4.30;99.90;;;;;;5076123;28;20040;-72
2022/01/25 03:41:38;;;;;;;61.78;40.55;;;4.30;99.90;;;;;;5071000;28;20040;-72
2022/01/25 03:44:04;;;;;;;61.42;38.90;;;4.30;99.90;;;;;;5053375;28;20064;-72
2022/01/25 03:46:38;;;;;;;61.17;40.72;;;4.40;99.90;;;;;;5046487;28;20047;-72
2022/01/25 03:51:49;;;;;;;64.03;41.03;;;4.30;99.90;;;;;;5054233;28;20080;-72
2022/01/25 03:54:16;;;;;;;66.10;40.17;;;4.30;99.90;;;;;;5059200;28;20101;-72
2022/01/25 03:56:41;;;;;;;62.70;40.05;;;4.30;99.90;;;;;;5065709;28;20033;-72
2022/01/25 03:59:07;;;;;;;63.38;40.67;;;4.30;99.90;;;;;;5058444;28;20425;-72
2022/01/25 04:01:35;;;;;;;61.08;38.67;;;4.30;99.90;;;;;;5050928;28;20066;-73
2022/01/25 04:04:05;;;;;;;60.25;39.80;;;4.30;99.90;;;;;;5046385;28;20044;-72
2022/01/25 04:06:32;;;;;;;68.43;42.10;;;4.30;99.90;;;;;;5053802;28;20409;-72
2022/01/25 04:09:00;;;;;;;61.90;40.28;;;4.40;99.90;;;;;;5064086;28;20049;-72
2022/01/25 04:11:26;;;;;;;62.38;40.50;;;4.30;99.90;;;;;;5082399;28;20509;-72
2022/01/25 04:13:53;;;;;;;61.53;40.70;;;4.30;99.90;;;;;;5069431;28;20044;-72
2022/01/25 04:16:24;;;;;;;63.30;41.00;;;4.30;99.90;;;;;;5058256;28;20684;-72
2022/01/25 04:19:06;;;;;;;63.70;39.80;;;4.30;99.90;;;;;;5062538;28;20089;-72
2022/01/25 04:26:47;;;;;;;59.63;39.38;;;4.30;99.90;;;;;;5053861;28;20131;-72
2022/01/25 04:29:14;;;;;;;64.88;40.97;;;4.30;99.90;;;;;;5054756;28;20746;-72
2022/01/25 04:31:39;;;;;;;62.38;41.13;;;4.30;99.90;;;;;;5044977;28;20075;-72
2022/01/25 04:34:13;;;;;;;64.90;40.10;;;4.30;99.90;;;;;;5040414;28;20087;-72
2022/01/25 04:50:07;;;;;;;62.58;39.28;;;4.30;99.90;;;;;;5051732;28;20080;-72
2022/01/25 04:52:42;;;;;;;62.22;39.85;;;4.30;99.90;;;;;;5063660;28;20043;-72
2022/01/25 04:55:19;;;;;;;62.42;39.42;;;4.30;99.90;;;;;;5062252;28;20040;-72
2022/01/25 04:57:52;;;;;;;63.78;40.25;;;4.30;99.90;;;;;;5053979;28;20049;-72
2022/01/25 05:00:21;;;;;;;64.40;40.97;;;4.20;99.90;;;;;;5042217;28;20397;-72
2022/01/25 05:02:53;;;;;;;62.95;39.95;;;4.30;99.90;;;;;;5048138;28;20140;-72
2022/01/25 05:05:30;;;;;;;61.63;39.72;;;4.30;99.90;;;;;;5055691;28;20721;-72
2022/01/25 05:10:24;;;;;;;60.20;39.22;;;4.20;99.90;;;;;;5068050;28;20048;-73
2022/01/25 05:13:09;;;;;;;63.30;38.85;;;4.20;99.90;;;;;;5061739;28;20540;-72
2022/01/25 05:18:16;;;;;;;65.25;40.40;;;4.20;99.90;;;;;;5056862;28;20139;-72
2022/01/25 05:23:27;;;;;;;62.80;38.95;;;4.30;99.90;;;;;;5057902;28;20048;-72
2022/01/25 05:25:52;;;;;;;59.92;38.10;;;4.30;99.90;;;;;;5060736;28;20470;-72
2022/01/25 05:28:18;;;;;;;60.35;38.05;;;4.30;99.90;;;;;;5057487;28;20036;-72
2022/01/25 05:30:44;;;;;;;61.72;39.05;;;4.30;99.90;;;;;;5086011;28;20405;-72
2022/01/25 05:33:09;;;;;;;62.53;39.05;;;4.20;99.90;;;;;;5060197;28;20032;-72
2022/01/25 05:35:35;;;;;;;59.88;38.80;;;4.30;99.90;;;;;;5062455;28;20045;-72
2022/01/25 05:38:01;;;;;;;64.00;38.67;;;4.30;99.90;;;;;;5040364;28;20044;-72
2022/01/25 05:40:45;;;;;;;59.70;38.28;;;4.30;99.90;;;;;;5082407;28;20067;-72
2022/01/25 05:44:01;;;;;;;63.53;39.47;;;4.30;99.90;;;;;;5055835;28;20111;-72
2022/01/25 05:46:01;;;;;;;58.45;36.95;;;4.30;99.90;;;;;;5071356;28;20132;-72
2022/01/25 05:48:28;;;;;;;62.25;38.38;;;4.30;99.90;;;;;;5040185;28;20036;-72
2022/01/25 05:50:54;;;;;;;62.38;37.70;;;4.30;99.90;;;;;;5056822;28;20039;-72
2022/01/25 05:53:21;;;;;;;67.30;40.85;;;4.30;99.90;;;;;;5085116;28;20040;-72
2022/01/25 05:55:47;;;;;;;61.08;38.47;;;4.30;99.90;;;;;;5065504;28;20032;-72
2022/01/25 05:58:12;;;;;;;59.38;37.83;;;4.30;99.90;;;;;;5051131;28;20086;-72
2022/01/25 06:00:38;;;;;;;62.88;38.05;;;4.30;99.90;;;;;;5067123;28;20051;-73
2022/01/25 06:03:05;;;;;;;61.03;38.05;;;4.30;99.90;;;;;;5048868;28;20041;-72
2022/01/25 06:05:32;;;;;;;65.30;39.85;;;4.30;99.90;;;;;;5054800;28;20064;-72
2022/01/25 06:07:58;;;;;;;56.10;35.15;;;4.30;99.90;;;;;;5055059;28;20040;-72
2022/01/25 06:10:23;;;;;;;60.47;38.40;;;4.40;99.90;;;;;;5104900;28;20127;-72
2022/01/25 06:12:49;;;;;;;62.70;38.65;;;4.30;99.90;;;;;;5073845;28;20037;-72
2022/01/25 06:15:15;;;;;;;62.35;38.17;;;4.30;99.90;;;;;;5056533;28;20142;-72
2022/01/25 06:17:40;;;;;;;60.33;38.05;;;4.30;99.90;;;;;;5069601;28;20778;-73
2022/01/25 06:20:06;;;;;;;70.90;43.97;;;4.30;99.90;;;;;;5080113;28;20383;-72
2022/01/25 06:22:32;;;;;;;70.07;43.00;;;4.30;99.90;;;;;;5054132;28;20055;-72
2022/01/25 06:24:58;;;;;;;78.47;48.58;;;4.40;99.90;;;;;;5054542;28;20486;-72
2022/01/25 06:27:24;;;;;;;62.70;41.75;;;4.30;99.90;;;;;;5046475;28;20044;-72
2022/01/25 06:29:50;;;;;;;60.53;39.00;;;4.40;99.90;;;;;;5034883;28;20044;-72
2022/01/25 06:32:16;;;;;;;68.28;41.83;;;4.30;99.90;;;;;;5041793;28;20435;-72
2022/01/25 06:34:44;;;;;;;66.32;42.53;;;4.30;99.90;;;;;;5047352;28;20036;-72
2022/01/25 06:37:11;;;;;;;60.78;41.03;;;4.30;99.90;;;;;;5078746;28;20057;-72
2022/01/25 06:39:38;;;;;;;62.38;39.85;;;4.30;99.90;;;;;;5052707;28;20072;-72
2022/01/25 06:42:04;;;;;;;65.20;39.83;;;4.30;99.90;;;;;;5044730;28;20037;-72
2022/01/25 06:44:29;;;;;;;63.60;39.47;;;4.30;99.90;;;;;;5044566;28;20140;-73
2022/01/25 06:46:55;;;;;;;60.38;37.90;;;4.40;99.90;;;;;;5053579;28;20132;-72
2022/01/25 06:49:20;;;;;;;61.75;38.15;;;4.30;99.90;;;;;;5053503;28;20127;-72
2022/01/25 06:51:46;;;;;;;60.72;38.08;;;4.30;99.90;;;;;;5041197;28;20049;-72
2022/01/25 06:54:11;;;;;;;60.72;39.20;;;4.40;99.90;;;;;;5047768;28;20037;-72
2022/01/25 06:56:37;;;;;;;60.88;38.67;;;4.40;99.90;;;;;;5053732;28;20044;-72
2022/01/25 06:59:03;;;;;;;61.60;38.35;;;4.30;99.90;;;;;;5071820;28;20037;-72
2022/01/25 07:01:30;;;;;;;62.75;39.25;;;4.30;99.90;;;;;;5053797;28;20134;-72
2022/01/25 07:03:55;;;;;;;62.22;39.08;;;4.40;99.90;;;;;;5052742;28;20060;-72
2022/01/25 07:06:21;;;;;;;62.53;39.05;;;4.30;99.90;;;;;;5071700;28;20087;-72
2022/01/25 07:08:46;;;;;;;65.28;40.58;;;4.30;99.90;;;;;;5072242;28;20048;-72
2022/01/25 07:11:13;;;;;;;63.08;40.17;;;4.30;99.90;;;;;;5053017;28;20125;-72
2022/01/25 07:13:39;;;;;;;62.17;38.92;;;4.30;99.90;;;;;;5052965;28;20037;-72
2022/01/25 07:16:05;;;;;;;62.88;38.67;;;4.30;99.90;;;;;;5071283;28;20032;-72
2022/01/25 07:18:31;;;;;;;65.28;39.53;;;4.30;99.90;;;;;;5052901;28;20036;-72
2022/01/25 07:20:57;;;;;;;62.13;38.55;;;4.30;99.90;;;;;;5052819;28;20062;-72
2022/01/25 07:23:23;;;;;;;60.30;37.92;;;4.30;99.90;;;;;;5053101;28;20032;-72
2022/01/25 07:25:48;;;;;;;65.15;39.58;;;4.30;99.90;;;;;;5051254;28;20039;-72
2022/01/25 07:28:14;;;;;;;67.07;39.67;;;4.40;99.90;;;;;;5048449;28;20129;-73
2022/01/25 07:30:40;;;;;;;61.88;37.65;;;4.30;99.90;;;;;;5070486;28;20032;-72
2022/01/25 07:33:07;;;;;;;62.05;38.42;;;4.30;99.90;;;;;;5036196;28;20119;-72
2022/01/25 07:35:34;;;;;;;63.33;39.03;;;4.40;99.90;;;;;;5069198;28;20052;-72
2022/01/25 07:38:01;;;;;;;62.05;37.67;;;4.30;99.90;;;;;;5053429;28;20463;-72
2022/01/25 07:40:27;;;;;;;62.88;37.40;;;4.30;99.90;;;;;;5070814;28;20448;-72
2022/01/25 07:42:53;;;;;;;64.57;39.97;;;4.40;99.90;;;;;;5053148;28;20036;-72
2022/01/25 07:45:19;;;;;;;62.72;37.80;;;4.30;99.90;;;;;;5062626;28;20089;-73
2022/01/25 07:47:45;;;;;;;59.30;37.83;;;4.30;99.90;;;;;;5052268;28;20064;-72
2022/01/25 07:50:11;;;;;;;61.33;36.40;;;4.30;99.90;;;;;;5054921;28;20036;-72
2022/01/25 07:52:37;;;;;;;64.05;38.83;;;4.30;99.90;;;;;;5033478;28;20382;-72
2022/01/25 07:55:04;;;;;;;61.25;37.88;;;4.30;99.90;;;;;;5040073;28;20083;-72
2022/01/25 07:57:30;;;;;;;64.97;38.55;;;4.30;99.90;;;;;;5033095;28;20040;-73
2022/01/25 07:59:57;;;;;;;64.40;39.53;;;4.40;99.90;;;;;;5052955;28;20044;-72
2022/01/25 08:02:23;;;;;;;63.75;39.22;;;4.40;99.90;;;;;;5051846;28;20558;-72
2022/01/25 08:04:48;;;;;;;61.75;38.58;;;4.40;99.90;;;;;;5075519;28;20040;-72
2022/01/25 08:07:14;;;;;;;66.00;39.63;;;4.40;99.90;;;;;;5040068;28;20040;-72
2022/01/25 08:09:39;;;;;;;64.20;39.85;;;4.40;99.90;;;;;;5050628;28;20145;-73
2022/01/25 08:12:05;;;;;;;59.88;36.90;;;4.40;99.90;;;;;;5062357;28;20035;-72
2022/01/25 08:14:31;;;;;;;64.47;39.47;;;4.40;99.90;;;;;;5051907;28;20040;-73
2022/01/25 08:16:57;;;;;;;61.95;37.90;;;4.40;99.90;;;;;;5052362;28;20043;-73
2022/01/25 08:19:23;;;;;;;63.13;39.83;;;4.40;99.90;;;;;;5035746;28;20135;-72
2022/01/25 08:21:49;;;;;;;67.28;39.60;;;4.40;99.90;;;;;;5049099;28;20316;-73
2022/01/25 08:24:20;;;;;;;64.13;40.15;;;4.40;99.90;;;;;;5052420;28;20044;-73
2022/01/25 08:26:47;;;;;;;63.50;39.05;;;4.40;99.90;;;;;;5083662;28;20071;-73
2022/01/25 08:29:12;;;;;;;66.05;39.70;;;4.40;99.90;;;;;;5051283;28;20040;-73
2022/01/25 08:31:39;;;;;;;63.22;39.15;;;4.40;99.90;;;;;;5055427;28;20620;-73
2022/01/25 08:34:06;;;;;;;62.13;37.35;;;4.40;99.90;;;;;;5078548;28;20051;-73
2022/01/25 08:36:32;;;;;;;62.80;38.08;;;4.40;99.90;;;;;;5058358;28;20052;-72
2022/01/25 08:38:58;;;;;;;61.90;38.05;;;4.40;99.90;;;;;;5050482;28;20059;-72
2022/01/25 08:41:23;;;;;;;65.30;38.42;;;4.40;99.90;;;;;;5050856;28;20034;-73
2022/01/25 08:43:50;;;;;;;60.97;38.83;;;4.40;99.90;;;;;;5051036;28;20041;-72
2022/01/25 08:46:16;;;;;;;66.68;39.05;;;4.40;99.90;;;;;;5067361;28;20032;-73
2022/01/25 08:48:42;;;;;;;67.65;40.17;;;4.40;99.90;;;;;;5069649;28;20037;-73
2022/01/25 08:51:08;;;;;;;64.47;38.78;;;4.50;99.90;;;;;;5051946;28;20040;-73
2022/01/25 08:53:34;;;;;;;63.47;38.88;;;4.50;99.90;;;;;;5029881;28;20036;-73
2022/01/25 08:56:00;;;;;;;62.15;37.40;;;4.50;99.90;;;;;;5050070;28;20382;-72
2022/01/25 08:58:26;;;;;;;64.25;38.10;;;4.50;99.90;;;;;;5059312;28;20032;-73
2022/01/25 09:00:52;;;;;;;62.17;36.75;;;4.50;99.90;;;;;;5059900;28;20036;-72
2022/01/25 09:03:18;;;;;;;66.28;38.70;;;4.50;99.90;;;;;;5058603;28;20059;-72
2022/01/25 09:05:43;;;;;;;66.05;39.38;;;4.50;99.90;;;;;;5055249;28;20048;-73
2022/01/25 09:08:10;;;;;;;65.38;39.38;;;4.50;99.90;;;;;;5061647;28;20040;-73
2022/01/25 09:10:35;;;;;;;63.13;38.55;;;4.50;99.90;;;;;;5052803;28;20040;-72
2022/01/25 09:13:02;;;;;;;65.38;39.22;;;4.60;99.90;;;;;;5053101;28;20060;-72
2022/01/25 09:15:28;;;;;;;65.40;38.50;;;4.50;99.90;;;;;;5053190;28;20066;-73
2022/01/25 09:17:53;;;;;;;66.03;39.47;;;4.50;99.90;;;;;;5069953;28;20486;-73
2022/01/25 09:20:20;;;;;;;67.28;39.97;;;4.50;99.90;;;;;;5058166;28;20377;-73
2022/01/25 09:22:45;;;;;;;70.50;40.53;;;4.60;99.90;;;;;;5052179;28;20147;-73
2022/01/25 09:25:13;;;;;;;65.30;39.50;;;4.60;99.90;;;;;;5052472;28;20024;-73
2022/01/25 09:27:38;;;;;;;64.28;39.15;;;4.60;99.90;;;;;;5052417;28;20077;-72
2022/01/25 09:30:05;;;;;;;62.25;38.30;;;4.60;99.90;;;;;;5055344;28;20127;-73
2022/01/25 09:32:31;;;;;;;65.88;39.78;;;4.60;99.90;;;;;;5075518;28;20046;-73
2022/01/25 09:34:56;;;;;;;63.88;38.63;;;4.70;99.90;;;;;;5075187;28;20182;-72
2022/01/25 09:37:22;;;;;;;63.90;38.83;;;4.70;99.90;;;;;;5057543;28;20102;-72
2022/01/25 09:39:47;;;;;;;63.78;38.80;;;4.70;99.90;;;;;;5060188;28;20047;-73
2022/01/25 09:42:13;;;;;;;65.13;36.90;;;4.70;99.90;;;;;;5054746;28;20072;-73
2022/01/25 09:44:40;;;;;;;65.07;39.40;;;4.70;99.90;;;;;;5088580;28;20074;-73
2022/01/25 09:47:09;;;;;;;65.13;38.22;;;4.70;99.90;;;;;;5052665;28;20040;-73
2022/01/25 09:49:35;;;;;;;65.03;38.67;;;4.70;99.90;;;;;;5088919;28;20055;-73
2022/01/25 09:52:04;;;;;;;63.05;38.00;;;4.70;99.90;;;;;;5054682;28;20066;-72
2022/01/25 09:54:31;;;;;;;61.65;38.33;;;4.70;99.90;;;;;;5055326;28;20036;-73
2022/01/25 09:56:57;;;;;;;65.97;38.72;;;4.70;99.90;;;;;;5066142;28;20040;-72
2022/01/25 09:59:26;;;;;;;64.07;38.30;;;4.80;99.90;;;;;;5072693;28;20567;-73
2022/01/25 10:01:54;;;;;;;63.60;38.65;;;4.80;99.90;;;;;;5059974;28;20052;-73
2022/01/25 10:04:42;;;;;;;62.28;37.80;;;4.80;99.90;;;;;;5054579;28;20075;-71
2022/01/25 10:07:10;;;;;;;65.57;39.33;;;4.80;99.90;;;;;;5054829;28;20043;-70
2022/01/25 10:09:42;;;;;;;68.60;39.30;;;4.80;99.90;;;;;;5072356;28;20096;-71
2022/01/25 10:12:18;;;;;;;66.75;39.47;;;4.80;99.90;;;;;;5072973;28;20072;-71
2022/01/25 10:15:00;;;;;;;66.60;39.90;;;4.80;99.90;;;;;;5072914;28;20046;-71
2022/01/25 10:17:30;;;;;;;67.05;38.40;;;4.90;99.90;;;;;;5072743;28;20036;-71
2022/01/25 10:19:56;;;;;;;67.40;40.08;;;4.90;99.90;;;;;;5054833;28;20049;-70
2022/01/25 10:22:21;;;;;;;65.35;38.72;;;4.80;99.90;;;;;;5054591;28;20048;-71
2022/01/25 10:24:47;;;;;;;68.35;39.63;;;4.90;99.90;;;;;;5054667;28;20032;-70
2022/01/25 10:27:13;;;;;;;67.55;39.22;;;4.90;99.90;;;;;;5071557;28;20076;-71
2022/01/25 10:29:40;;;;;;;61.45;37.25;;;4.90;99.90;;;;;;5054611;28;20359;-70
2022/01/25 10:32:14;;;;;;;69.75;39.17;;;4.80;99.90;;;;;;5054596;28;20436;-70
2022/01/25 10:34:44;;;;;;;70.35;40.58;;;4.80;99.90;;;;;;5054544;28;20036;-70
2022/01/25 10:37:16;;;;;;;66.03;38.95;;;4.80;99.90;;;;;;5054166;28;20092;-70
2022/01/25 10:39:43;;;;;;;;;;;4.80;99.90;;;;;;5072832;28;20336;-71
2022/01/25 10:42:23;;;;;;;66.00;38.78;;;4.90;99.90;;;;;;5062826;28;19916;-71
2022/01/25 10:45:10;;;;;;;62.63;37.72;;;4.80;99.90;;;;;;5074672;28;20401;-70
2022/01/25 10:47:52;;;;;;;67.82;39.78;;;4.90;99.90;;;;;;5092550;28;20082;-70
2022/01/25 10:50:22;;;;;;;65.07;38.35;;;4.90;99.90;;;;;;5074335;28;20467;-70
2022/01/25 10:53:15;;;;;;;70.50;41.38;;;4.90;99.90;;;;;;5074292;28;20075;-71
2022/01/25 10:55:48;;;;;;;;;;;4.90;99.90;;;;;;5074947;28;20365;-71
2022/01/25 10:58:14;;;;;;;61.95;37.45;;;4.90;99.90;;;;;;5108222;28;20264;-71
2022/01/25 11:00:43;;;;;;;68.82;38.20;;;5.00;99.90;;;;;;5073815;28;20051;-71
2022/01/25 11:03:10;;;;;;;71.68;39.53;;;5.00;99.90;;;;;;5073755;28;20051;-71
2022/01/25 11:05:45;;;;;;;67.03;38.25;;;4.90;99.90;;;;;;5074014;28;20039;-71
2022/01/25 11:08:17;;;;;;;65.15;38.15;;;5.00;99.90;;;;;;5073646;28;20523;-71
2022/01/25 11:10:52;;;;;;;66.85;37.85;;;5.00;99.90;;;;;;5073447;28;20109;-71
2022/01/25 11:15:54;;;;;;;63.33;37.42;;;5.00;99.90;;;;;;5073787;28;20130;-71
2022/01/25 11:18:20;;;;;;;63.63;37.58;;;5.00;99.90;;;;;;5073700;28;20417;-70
2022/01/25 11:20:46;;;;;;;62.78;36.80;;;5.00;99.90;;;;;;5068882;28;20046;-71
2022/01/25 11:23:12;;;;;;;64.88;36.70;;;5.10;99.90;;;;;;5036853;28;20043;-70
2022/01/25 11:25:40;;;;;;;63.40;36.65;;;5.10;99.90;;;;;;5053549;28;20033;-70
2022/01/25 11:28:06;;;;;;;66.45;39.20;;;5.10;99.90;;;;;;5071372;28;20044;-70
2022/01/25 11:30:32;;;;;;;66.22;37.97;;;5.10;99.90;;;;;;5053851;28;20051;-71
2022/01/25 11:32:59;;;;;;;66.95;38.75;;;5.20;99.90;;;;;;5071687;28;20586;-70
2022/01/25 11:35:25;;;;;;;67.13;39.92;;;5.10;99.90;;;;;;5036759;28;20052;-71
2022/01/25 11:37:51;;;;;;;64.65;38.00;;;5.10;99.90;;;;;;5036691;28;20184;-70
2022/01/25 11:40:25;;;;;;;67.18;39.17;;;5.10;99.90;;;;;;5036322;28;20120;-70
2022/01/25 11:42:53;;;;;;;68.05;38.65;;;5.10;99.90;;;;;;5071154;28;20552;-70
2022/01/25 11:45:24;;;;;;;67.40;36.88;;;5.10;99.90;;;;;;5029052;28;20459;-70
2022/01/25 11:47:51;;;;;;;68.53;37.95;;;5.20;99.90;;;;;;5033564;28;20509;-71
2022/01/25 11:50:18;;;;;;;65.53;38.25;;;5.20;99.90;;;;;;5048071;28;20051;-71
2022/01/25 11:52:55;;;;;;;66.80;37.88;;;5.20;99.90;;;;;;5060156;28;20410;-71
2022/01/25 11:55:25;;;;;;;66.20;38.10;;;5.20;99.90;;;;;;5033157;28;20562;-71
2022/01/25 11:58:00;;;;;;;66.00;36.95;;;5.20;99.90;;;;;;5052678;28;20512;-71
2022/01/25 12:00:38;;;;;;;66.20;39.17;;;5.20;99.90;;;;;;5047676;28;20053;-71
2022/01/25 12:03:24;;;;;;;65.03;37.20;;;5.20;99.90;;;;;;5064783;28;20036;-72
2022/01/25 12:06:07;;;;;;;62.33;37.58;;;5.20;99.90;;;;;;5072931;28;20032;-72
2022/01/25 12:08:52;;;;;;;65.57;36.70;;;5.30;99.90;;;;;;5030014;28;20032;-72
2022/01/25 12:11:30;;;;;;;68.07;37.22;;;5.30;99.90;;;;;;5050947;28;20108;-72
2022/01/25 12:14:14;;;;;;;64.22;37.25;;;5.30;99.90;;;;;;5036303;28;20055;-72
2022/01/25 12:16:44;;;;;;;57.55;34.17;;;5.30;99.90;;;;;;5064616;28;20033;-72
2022/01/25 12:19:12;;;;;;;63.22;36.58;;;5.30;99.90;;;;;;5066102;28;20047;-72
2022/01/25 12:21:53;;;;;;;63.85;35.17;;;5.40;99.90;;;;;;5044796;28;20045;-72
2022/01/25 12:24:31;;;;;;;60.50;35.28;;;5.40;99.90;;;;;;5045740;28;20052;-72
2022/01/25 12:27:17;;;;;;;57.60;34.83;;;5.30;99.90;;;;;;5057700;28;20040;-72
2022/01/25 12:30:03;;;;;;;67.28;39.90;;;5.30;99.90;;;;;;5053107;28;20632;-72
2022/01/25 12:32:35;;;;;;;57.58;34.53;;;5.30;99.90;;;;;;5066242;28;20446;-72
2022/01/25 12:35:11;;;;;;;60.30;34.72;;;5.40;99.90;;;;;;5058232;28;20068;-72
2022/01/25 12:37:42;;;;;;;63.08;35.88;;;5.40;99.90;;;;;;5088822;28;20127;-72
2022/01/25 12:40:26;;;;;;;62.22;36.42;;;5.30;99.90;;;;;;5089742;28;20056;-72
2022/01/25 12:42:58;;;;;;;57.95;33.03;;;5.30;99.90;;;;;;5042142;28;20091;-72
2022/01/25 12:45:27;;;;;;;62.60;34.60;;;5.30;99.90;;;;;;5069344;28;20086;-72
2022/01/25 12:47:58;;;;;;;60.50;34.67;;;5.40;99.90;;;;;;5086341;28;20036;-72
2022/01/25 12:50:25;;;;;;;56.53;32.92;;;5.30;99.90;;;;;;5076513;28;20029;-72
2022/01/25 12:52:51;;;;;;;65.95;35.70;;;5.30;99.90;;;;;;5088091;28;20036;-72
2022/01/25 12:55:23;;;;;;;63.47;34.22;;;5.30;99.90;;;;;;5071998;28;20533;-72
2022/01/25 12:57:50;;;;;;;65.32;37.33;;;5.30;99.90;;;;;;5019454;28;20040;-72
2022/01/25 13:00:16;;;;;;;65.45;36.80;;;5.30;99.90;;;;;;5077675;28;20037;-72
2022/01/25 13:02:43;;;;;;;69.57;38.00;;;5.30;99.90;;;;;;5045588;28;20036;-72
2022/01/25 13:05:21;;;;;;;67.20;37.63;;;5.30;99.90;;;;;;5050201;28;20040;-72
2022/01/25 13:07:48;;;;;;;66.65;37.33;;;5.30;99.90;;;;;;5049457;28;20072;-72
2022/01/25 13:10:29;;;;;;;64.22;36.13;;;5.30;99.90;;;;;;5047633;28;20116;-72
2022/01/25 13:12:58;;;;;;;69.10;37.58;;;5.30;99.90;;;;;;5051711;28;20056;-72
2022/01/25 13:18:14;;;;;;;64.95;37.30;;;5.30;99.90;;;;;;5086254;28;20044;-72
2022/01/25 13:20:42;;;;;;;66.65;37.13;;;5.30;99.90;;;;;;5062867;23;20053;-68
2022/01/25 13:23:08;;;;;;;65.40;37.08;;;5.30;99.90;;;;;;5045254;28;20041;-67
2022/01/25 13:25:55;;;;;;;66.93;37.55;;;5.30;99.90;;;;;;5044801;28;20350;-68
2022/01/25 13:28:51;;;;;;;67.65;35.15;;;5.30;99.90;;;;;;5047012;28;20500;-68
2022/01/25 13:31:19;;;;;;;65.22;36.58;;;5.30;99.90;;;;;;5049556;28;20077;-66
2022/01/25 13:33:46;;;;;;;61.20;35.15;;;5.30;99.90;;;;;;5046803;28;20493;-66
2022/01/25 13:36:20;;;;;;;66.00;36.30;;;5.20;99.90;;;;;;5053382;28;20036;-66
2022/01/25 13:38:48;;;;;;;68.97;36.78;;;5.20;99.90;;;;;;5047879;28;20037;-66
2022/01/25 13:41:29;;;;;;;65.75;35.42;;;5.30;99.90;;;;;;5050551;28;20044;-66
2022/01/25 13:46:32;;;;;;;66.70;37.65;;;5.30;99.90;;;;;;5053997;28;20044;-68
2022/01/25 13:49:05;;;;;;;67.95;40.17;;;5.20;99.90;;;;;;5042590;28;20048;-67
2022/01/25 13:51:39;;;;;;;68.47;37.70;;;5.20;99.90;;;;;;5066231;28;20051;-67
2022/01/25 13:54:04;;;;;;;65.95;36.10;;;5.20;99.90;;;;;;5053351;28;20728;-67
2022/01/25 13:56:33;;;;;;;65.03;35.88;;;5.20;99.90;;;;;;5066960;28;20161;-67
2022/01/25 13:59:00;;;;;;;69.32;38.05;;;5.20;99.90;;;;;;5062020;28;20040;-67
2022/01/25 14:01:27;;;;;;;68.07;37.75;;;5.30;99.90;;;;;;5060589;28;20482;-67
2022/01/25 14:04:04;;;;;;;73.25;39.92;;;5.20;99.90;;;;;;5064103;28;20040;-67
2022/01/25 14:06:29;;;;;;;68.43;38.25;;;5.20;99.90;;;;;;5057349;28;20041;-67
2022/01/25 14:09:15;;;;;;;72.00;39.53;;;5.20;99.90;;;;;;5063960;28;20036;-68
2022/01/25 14:25:24;;;;;;;70.68;39.15;;;5.20;99.90;;;;;;5061390;28;20045;-67
2022/01/25 14:27:55;;;;;;;73.90;37.60;;;5.10;99.90;;;;;;5054319;28;20052;-67
2022/01/25 14:30:21;;;;;;;64.88;36.47;;;5.10;99.90;;;;;;5052375;28;20048;-67
2022/01/25 14:33:06;;;;;;;73.90;38.55;;;5.00;99.90;;;;;;5062077;28;20048;-67
2022/01/25 14:35:32;;;;;;;67.78;37.03;;;5.10;99.90;;;;;;5050870;28;20036;-67
2022/01/25 14:38:00;;;;;;;72.88;39.13;;;5.10;99.90;;;;;;5056755;28;20037;-67
2022/01/25 14:40:26;;;;;;;68.47;36.22;;;5.10;99.90;;;;;;5060391;28;20041;-67